sensor_id;sensor_type;location;lat;lon;timestamp;P1;durP1;ratioP1;P2;durP2;ratioP2
32746;SDS011;19118;50.860;13.662;2022-12-10T00:00:54;287.40;;;56.22;;
32746;SDS011;19118;50.860;13.662;2022-12-10T00:05:54;342.73;;;59.08;;
32746;SDS011;19118;50.860;13.662;2022-12-10T00:10:55;356.30;;;58.08;;
32746;SDS011;19118;50.860;13.662;2022-12-10T00:15:55;244.25;;;55.25;;
32746;SDS011;19118;50.860;13.662;2022-12-10T00:20:55;269.55;;;55.60;;
32746;SDS011;19118;50.860;13.662;2022-12-10T00:26:01;240.75;;;53.33;;
32746;SDS011;19118;50.860;13.662;2022-12-10T00:31:06;289.05;;;55.17;;
32746;SDS011;19118;50.860;13.662;2022-12-10T00:36:12;334.48;;;57.03;;
32746;SDS011;19118;50.860;13.662;2022-12-10T00:41:14;321.17;;;61.70;;
32746;SDS011;19118;50.860;13.662;2022-12-10T00:46:16;567.00;;;69.63;;
32746;SDS011;19118;50.860;13.662;2022-12-10T00:51:18;535.55;;;68.72;;
32746;SDS011;19118;50.860;13.662;2022-12-10T00:56:23;292.00;;;53.80;;
32746;SDS011;19118;50.860;13.662;2022-12-10T01:01:26;331.73;;;58.92;;
32746;SDS011;19118;50.860;13.662;2022-12-10T01:06:29;327.90;;;58.03;;
32746;SDS011;19118;50.860;13.662;2022-12-10T01:11:42;499.85;;;61.72;;
32746;SDS011;19118;50.860;13.662;2022-12-10T01:16:44;306.00;;;54.80;;
32746;SDS011;19118;50.860;13.662;2022-12-10T01:21:45;547.70;;;66.25;;
32746;SDS011;19118;50.860;13.662;2022-12-10T01:26:45;555.55;;;62.58;;
32746;SDS011;19118;50.860;13.662;2022-12-10T01:31:45;457.98;;;62.60;;
32746;SDS011;19118;50.860;13.662;2022-12-10T01:36:52;344.27;;;55.55;;
32746;SDS011;19118;50.860;13.662;2022-12-10T01:41:54;603.40;;;68.93;;
32746;SDS011;19118;50.860;13.662;2022-12-10T01:46:58;290.42;;;53.92;;
32746;SDS011;19118;50.860;13.662;2022-12-10T01:52:01;485.83;;;60.20;;
32746;SDS011;19118;50.860;13.662;2022-12-10T02:13:11;580.75;;;66.00;;
32746;SDS011;19118;50.860;13.662;2022-12-10T02:23:44;591.03;;;70.47;;
32746;SDS011;19118;50.860;13.662;2022-12-10T02:33:56;745.40;;;77.35;;
32746;SDS011;19118;50.860;13.662;2022-12-10T02:39:00;820.45;;;82.82;;
32746;SDS011;19118;50.860;13.662;2022-12-10T02:44:04;622.67;;;67.35;;
32746;SDS011;19118;50.860;13.662;2022-12-10T02:49:07;724.50;;;71.60;;
32746;SDS011;19118;50.860;13.662;2022-12-10T02:59:46;612.80;;;65.50;;
32746;SDS011;19118;50.860;13.662;2022-12-10T03:05:04;802.67;;;74.55;;
32746;SDS011;19118;50.860;13.662;2022-12-10T03:10:24;650.08;;;68.00;;
32746;SDS011;19118;50.860;13.662;2022-12-10T03:15:34;410.02;;;57.50;;
32746;SDS011;19118;50.860;13.662;2022-12-10T03:20:39;703.47;;;70.40;;
32746;SDS011;19118;50.860;13.662;2022-12-10T03:25:42;388.60;;;55.25;;
32746;SDS011;19118;50.860;13.662;2022-12-10T03:30:44;895.53;;;76.88;;
32746;SDS011;19118;50.860;13.662;2022-12-10T03:35:47;497.67;;;59.22;;
32746;SDS011;19118;50.860;13.662;2022-12-10T03:40:48;578.67;;;74.00;;
32746;SDS011;19118;50.860;13.662;2022-12-10T03:45:48;778.95;;;72.88;;
32746;SDS011;19118;50.860;13.662;2022-12-10T03:50:49;533.40;;;63.15;;
32746;SDS011;19118;50.860;13.662;2022-12-10T03:55:49;717.20;;;74.97;;
32746;SDS011;19118;50.860;13.662;2022-12-10T04:00:50;487.25;;;59.00;;
32746;SDS011;19118;50.860;13.662;2022-12-10T04:05:50;187.63;;;43.42;;
32746;SDS011;19118;50.860;13.662;2022-12-10T04:10:50;381.95;;;48.08;;
32746;SDS011;19118;50.860;13.662;2022-12-10T04:15:51;168.40;;;42.60;;
32746;SDS011;19118;50.860;13.662;2022-12-10T04:21:10;403.67;;;56.83;;
32746;SDS011;19118;50.860;13.662;2022-12-10T04:26:29;386.05;;;49.67;;
32746;SDS011;19118;50.860;13.662;2022-12-10T04:31:48;527.22;;;55.05;;
32746;SDS011;19118;50.860;13.662;2022-12-10T04:36:49;430.17;;;53.47;;
32746;SDS011;19118;50.860;13.662;2022-12-10T04:41:50;343.63;;;53.10;;
32746;SDS011;19118;50.860;13.662;2022-12-10T04:46:51;382.20;;;53.28;;
32746;SDS011;19118;50.860;13.662;2022-12-10T04:51:51;333.30;;;51.95;;
32746;SDS011;19118;50.860;13.662;2022-12-10T04:56:53;262.02;;;46.60;;
32746;SDS011;19118;50.860;13.662;2022-12-10T05:01:53;278.02;;;46.15;;
32746;SDS011;19118;50.860;13.662;2022-12-10T05:06:54;356.73;;;49.35;;
32746;SDS011;19118;50.860;13.662;2022-12-10T05:11:54;232.90;;;40.78;;
32746;SDS011;19118;50.860;13.662;2022-12-10T05:16:55;398.77;;;49.65;;
32746;SDS011;19118;50.860;13.662;2022-12-10T05:21:55;218.23;;;41.78;;
32746;SDS011;19118;50.860;13.662;2022-12-10T05:27:14;142.37;;;38.13;;
32746;SDS011;19118;50.860;13.662;2022-12-10T05:32:14;166.10;;;39.80;;
32746;SDS011;19118;50.860;13.662;2022-12-10T05:37:15;142.57;;;38.63;;
32746;SDS011;19118;50.860;13.662;2022-12-10T05:42:15;131.32;;;36.53;;
32746;SDS011;19118;50.860;13.662;2022-12-10T05:47:16;132.13;;;38.65;;
32746;SDS011;19118;50.860;13.662;2022-12-10T05:52:16;152.10;;;40.70;;
32746;SDS011;19118;50.860;13.662;2022-12-10T05:57:17;131.50;;;37.85;;
32746;SDS011;19118;50.860;13.662;2022-12-10T06:02:18;128.48;;;38.22;;
32746;SDS011;19118;50.860;13.662;2022-12-10T06:07:18;127.00;;;35.97;;
32746;SDS011;19118;50.860;13.662;2022-12-10T06:12:18;112.28;;;36.80;;
32746;SDS011;19118;50.860;13.662;2022-12-10T06:17:19;136.85;;;38.38;;
32746;SDS011;19118;50.860;13.662;2022-12-10T06:22:19;127.32;;;37.05;;
32746;SDS011;19118;50.860;13.662;2022-12-10T06:27:20;114.13;;;34.85;;
32746;SDS011;19118;50.860;13.662;2022-12-10T06:32:20;98.60;;;33.83;;
32746;SDS011;19118;50.860;13.662;2022-12-10T06:37:20;106.50;;;33.88;;
32746;SDS011;19118;50.860;13.662;2022-12-10T06:42:21;103.38;;;35.03;;
32746;SDS011;19118;50.860;13.662;2022-12-10T06:47:22;97.97;;;34.22;;
32746;SDS011;19118;50.860;13.662;2022-12-10T06:52:23;110.35;;;35.80;;
32746;SDS011;19118;50.860;13.662;2022-12-10T06:57:23;90.78;;;31.20;;
32746;SDS011;19118;50.860;13.662;2022-12-10T07:02:23;80.60;;;27.83;;
32746;SDS011;19118;50.860;13.662;2022-12-10T07:07:24;71.18;;;25.75;;
32746;SDS011;19118;50.860;13.662;2022-12-10T07:12:24;75.32;;;27.27;;
32746;SDS011;19118;50.860;13.662;2022-12-10T07:17:25;83.63;;;29.15;;
32746;SDS011;19118;50.860;13.662;2022-12-10T07:22:25;76.13;;;30.13;;
32746;SDS011;19118;50.860;13.662;2022-12-10T07:27:25;79.95;;;28.80;;
32746;SDS011;19118;50.860;13.662;2022-12-10T07:32:26;75.53;;;28.55;;
32746;SDS011;19118;50.860;13.662;2022-12-10T07:37:27;73.70;;;29.65;;
32746;SDS011;19118;50.860;13.662;2022-12-10T07:42:28;89.13;;;34.92;;
32746;SDS011;19118;50.860;13.662;2022-12-10T07:47:28;80.20;;;28.77;;
32746;SDS011;19118;50.860;13.662;2022-12-10T07:52:29;74.82;;;29.77;;
32746;SDS011;19118;50.860;13.662;2022-12-10T07:57:29;59.97;;;24.35;;
32746;SDS011;19118;50.860;13.662;2022-12-10T08:02:30;61.92;;;27.42;;
32746;SDS011;19118;50.860;13.662;2022-12-10T08:07:30;64.25;;;26.38;;
32746;SDS011;19118;50.860;13.662;2022-12-10T08:12:32;65.05;;;27.40;;
32746;SDS011;19118;50.860;13.662;2022-12-10T08:17:34;70.72;;;28.20;;
32746;SDS011;19118;50.860;13.662;2022-12-10T08:22:35;50.08;;;21.38;;
32746;SDS011;19118;50.860;13.662;2022-12-10T08:27:36;52.50;;;21.13;;
32746;SDS011;19118;50.860;13.662;2022-12-10T08:32:36;56.42;;;22.20;;
32746;SDS011;19118;50.860;13.662;2022-12-10T08:37:40;74.65;;;28.40;;
32746;SDS011;19118;50.860;13.662;2022-12-10T08:42:42;65.95;;;27.33;;
32746;SDS011;19118;50.860;13.662;2022-12-10T08:47:42;69.43;;;27.77;;
32746;SDS011;19118;50.860;13.662;2022-12-10T08:52:42;71.45;;;28.70;;
32746;SDS011;19118;50.860;13.662;2022-12-10T08:57:43;78.53;;;29.55;;
32746;SDS011;19118;50.860;13.662;2022-12-10T09:02:44;72.60;;;26.13;;
32746;SDS011;19118;50.860;13.662;2022-12-10T09:07:45;61.08;;;24.27;;
32746;SDS011;19118;50.860;13.662;2022-12-10T09:12:45;64.13;;;25.65;;
32746;SDS011;19118;50.860;13.662;2022-12-10T09:17:45;66.45;;;24.35;;
32746;SDS011;19118;50.860;13.662;2022-12-10T09:22:46;56.92;;;23.38;;
32746;SDS011;19118;50.860;13.662;2022-12-10T09:27:46;56.30;;;22.02;;
32746;SDS011;19118;50.860;13.662;2022-12-10T09:32:47;59.90;;;24.25;;
32746;SDS011;19118;50.860;13.662;2022-12-10T09:37:47;58.67;;;24.35;;
32746;SDS011;19118;50.860;13.662;2022-12-10T09:42:50;68.43;;;26.35;;
32746;SDS011;19118;50.860;13.662;2022-12-10T09:48:10;74.15;;;27.67;;
32746;SDS011;19118;50.860;13.662;2022-12-10T09:53:32;65.07;;;26.35;;
32746;SDS011;19118;50.860;13.662;2022-12-10T09:58:35;62.88;;;23.65;;
32746;SDS011;19118;50.860;13.662;2022-12-10T10:03:38;65.10;;;25.20;;
32746;SDS011;19118;50.860;13.662;2022-12-10T10:08:51;60.08;;;24.17;;
32746;SDS011;19118;50.860;13.662;2022-12-10T10:19:16;53.58;;;23.05;;
32746;SDS011;19118;50.860;13.662;2022-12-10T10:24:25;47.55;;;20.27;;
32746;SDS011;19118;50.860;13.662;2022-12-10T10:29:33;55.47;;;21.27;;
32746;SDS011;19118;50.860;13.662;2022-12-10T10:34:34;54.72;;;23.13;;
32746;SDS011;19118;50.860;13.662;2022-12-10T10:39:39;55.17;;;22.42;;
32746;SDS011;19118;50.860;13.662;2022-12-10T10:44:46;56.05;;;23.58;;
32746;SDS011;19118;50.860;13.662;2022-12-10T10:49:46;55.22;;;23.48;;
32746;SDS011;19118;50.860;13.662;2022-12-10T10:54:47;64.15;;;27.30;;
32746;SDS011;19118;50.860;13.662;2022-12-10T10:59:49;59.63;;;23.65;;
32746;SDS011;19118;50.860;13.662;2022-12-10T11:04:53;64.45;;;26.10;;
32746;SDS011;19118;50.860;13.662;2022-12-10T11:09:55;55.85;;;24.63;;
32746;SDS011;19118;50.860;13.662;2022-12-10T11:14:55;64.75;;;25.17;;
32746;SDS011;19118;50.860;13.662;2022-12-10T11:20:15;59.10;;;24.92;;
32746;SDS011;19118;50.860;13.662;2022-12-10T11:25:19;60.05;;;24.42;;
32746;SDS011;19118;50.860;13.662;2022-12-10T11:30:37;53.08;;;24.17;;
32746;SDS011;19118;50.860;13.662;2022-12-10T11:35:58;61.47;;;25.67;;
32746;SDS011;19118;50.860;13.662;2022-12-10T11:46:25;59.00;;;26.25;;
32746;SDS011;19118;50.860;13.662;2022-12-10T11:56:49;77.50;;;32.17;;
32746;SDS011;19118;50.860;13.662;2022-12-10T12:02:08;67.63;;;26.75;;
32746;SDS011;19118;50.860;13.662;2022-12-10T12:13:02;51.72;;;22.38;;
32746;SDS011;19118;50.860;13.662;2022-12-10T12:18:23;51.78;;;22.77;;
32746;SDS011;19118;50.860;13.662;2022-12-10T12:28:39;53.95;;;23.95;;
32746;SDS011;19118;50.860;13.662;2022-12-10T12:33:50;57.42;;;24.20;;
32746;SDS011;19118;50.860;13.662;2022-12-10T12:38:59;97.43;;;32.53;;
32746;SDS011;19118;50.860;13.662;2022-12-10T12:44:03;77.68;;;29.70;;
32746;SDS011;19118;50.860;13.662;2022-12-10T12:54:21;57.53;;;26.38;;
32746;SDS011;19118;50.860;13.662;2022-12-10T13:04:25;61.95;;;27.48;;
32746;SDS011;19118;50.860;13.662;2022-12-10T13:09:27;57.83;;;25.65;;
32746;SDS011;19118;50.860;13.662;2022-12-10T13:14:33;52.42;;;24.92;;
32746;SDS011;19118;50.860;13.662;2022-12-10T13:19:35;59.13;;;26.15;;
32746;SDS011;19118;50.860;13.662;2022-12-10T13:55:42;64.97;;;28.90;;
32746;SDS011;19118;50.860;13.662;2022-12-10T14:00:59;60.37;;;27.87;;
32746;SDS011;19118;50.860;13.662;2022-12-10T14:11:18;53.60;;;25.08;;
32746;SDS011;19118;50.860;13.662;2022-12-10T14:16:22;64.47;;;25.02;;
32746;SDS011;19118;50.860;13.662;2022-12-10T14:21:23;56.78;;;24.40;;
32746;SDS011;19118;50.860;13.662;2022-12-10T14:26:29;67.18;;;27.30;;
32746;SDS011;19118;50.860;13.662;2022-12-10T14:31:32;59.33;;;25.17;;
32746;SDS011;19118;50.860;13.662;2022-12-10T14:36:39;64.22;;;24.77;;
32746;SDS011;19118;50.860;13.662;2022-12-10T14:41:44;55.28;;;24.85;;
32746;SDS011;19118;50.860;13.662;2022-12-10T14:46:47;59.60;;;24.10;;
32746;SDS011;19118;50.860;13.662;2022-12-10T14:51:49;60.97;;;27.58;;
32746;SDS011;19118;50.860;13.662;2022-12-10T14:56:50;72.28;;;27.42;;
32746;SDS011;19118;50.860;13.662;2022-12-10T15:01:54;61.17;;;26.80;;
32746;SDS011;19118;50.860;13.662;2022-12-10T15:06:57;64.93;;;27.90;;
32746;SDS011;19118;50.860;13.662;2022-12-10T15:12:00;65.10;;;26.92;;
32746;SDS011;19118;50.860;13.662;2022-12-10T15:17:01;68.88;;;26.00;;
32746;SDS011;19118;50.860;13.662;2022-12-10T15:22:11;75.43;;;28.67;;
32746;SDS011;19118;50.860;13.662;2022-12-10T15:27:21;71.20;;;28.73;;
32746;SDS011;19118;50.860;13.662;2022-12-10T15:32:24;61.75;;;27.00;;
32746;SDS011;19118;50.860;13.662;2022-12-10T15:37:33;61.63;;;26.33;;
32746;SDS011;19118;50.860;13.662;2022-12-10T15:42:42;63.63;;;28.38;;
32746;SDS011;19118;50.860;13.662;2022-12-10T15:47:44;58.37;;;26.90;;
32746;SDS011;19118;50.860;13.662;2022-12-10T15:52:45;66.03;;;26.42;;
32746;SDS011;19118;50.860;13.662;2022-12-10T15:57:45;67.28;;;28.15;;
32746;SDS011;19118;50.860;13.662;2022-12-10T16:02:50;68.40;;;28.65;;
32746;SDS011;19118;50.860;13.662;2022-12-10T16:08:12;71.57;;;29.05;;
32746;SDS011;19118;50.860;13.662;2022-12-10T16:13:25;78.28;;;30.38;;
32746;SDS011;19118;50.860;13.662;2022-12-10T16:18:28;114.60;;;32.53;;
32746;SDS011;19118;50.860;13.662;2022-12-10T16:23:28;92.07;;;34.83;;
32746;SDS011;19118;50.860;13.662;2022-12-10T16:28:29;112.15;;;36.58;;
32746;SDS011;19118;50.860;13.662;2022-12-10T16:33:29;117.13;;;34.13;;
32746;SDS011;19118;50.860;13.662;2022-12-10T16:38:29;143.10;;;37.13;;
32746;SDS011;19118;50.860;13.662;2022-12-10T16:43:30;200.80;;;37.20;;
32746;SDS011;19118;50.860;13.662;2022-12-10T16:48:32;184.70;;;38.72;;
32746;SDS011;19118;50.860;13.662;2022-12-10T16:53:33;234.38;;;40.00;;
32746;SDS011;19118;50.860;13.662;2022-12-10T16:58:35;125.72;;;38.08;;
32746;SDS011;19118;50.860;13.662;2022-12-10T17:03:37;110.63;;;36.47;;
32746;SDS011;19118;50.860;13.662;2022-12-10T17:08:37;127.80;;;39.15;;
32746;SDS011;19118;50.860;13.662;2022-12-10T17:13:38;94.30;;;34.20;;
32746;SDS011;19118;50.860;13.662;2022-12-10T17:18:40;85.88;;;31.10;;
32746;SDS011;19118;50.860;13.662;2022-12-10T17:23:40;90.25;;;33.28;;
32746;SDS011;19118;50.860;13.662;2022-12-10T17:28:41;90.75;;;31.67;;
32746;SDS011;19118;50.860;13.662;2022-12-10T17:33:41;73.13;;;28.23;;
32746;SDS011;19118;50.860;13.662;2022-12-10T17:38:41;72.10;;;27.88;;
32746;SDS011;19118;50.860;13.662;2022-12-10T17:43:42;78.22;;;27.05;;
32746;SDS011;19118;50.860;13.662;2022-12-10T17:48:43;74.07;;;28.17;;
32746;SDS011;19118;50.860;13.662;2022-12-10T17:53:43;84.10;;;31.05;;
32746;SDS011;19118;50.860;13.662;2022-12-10T17:58:44;73.65;;;28.17;;
32746;SDS011;19118;50.860;13.662;2022-12-10T18:03:48;63.83;;;27.38;;
32746;SDS011;19118;50.860;13.662;2022-12-10T18:08:48;75.05;;;29.17;;
32746;SDS011;19118;50.860;13.662;2022-12-10T18:13:50;66.40;;;28.67;;
32746;SDS011;19118;50.860;13.662;2022-12-10T18:18:51;56.58;;;25.40;;
32746;SDS011;19118;50.860;13.662;2022-12-10T18:23:51;72.68;;;27.63;;
32746;SDS011;19118;50.860;13.662;2022-12-10T18:28:58;81.55;;;32.78;;
32746;SDS011;19118;50.860;13.662;2022-12-10T18:34:07;93.57;;;33.88;;
32746;SDS011;19118;50.860;13.662;2022-12-10T18:44:17;90.60;;;33.58;;
32746;SDS011;19118;50.860;13.662;2022-12-10T18:49:21;99.97;;;33.55;;
32746;SDS011;19118;50.860;13.662;2022-12-10T18:54:22;85.63;;;32.92;;
32746;SDS011;19118;50.860;13.662;2022-12-10T18:59:23;86.90;;;34.28;;
32746;SDS011;19118;50.860;13.662;2022-12-10T19:04:23;87.50;;;33.95;;
32746;SDS011;19118;50.860;13.662;2022-12-10T19:09:24;89.57;;;36.42;;
32746;SDS011;19118;50.860;13.662;2022-12-10T19:14:24;84.38;;;31.48;;
32746;SDS011;19118;50.860;13.662;2022-12-10T19:19:25;92.07;;;35.25;;
32746;SDS011;19118;50.860;13.662;2022-12-10T19:24:25;81.10;;;33.20;;
32746;SDS011;19118;50.860;13.662;2022-12-10T19:29:26;81.18;;;32.00;;
32746;SDS011;19118;50.860;13.662;2022-12-10T19:34:26;77.25;;;32.10;;
32746;SDS011;19118;50.860;13.662;2022-12-10T19:39:27;77.75;;;31.48;;
32746;SDS011;19118;50.860;13.662;2022-12-10T19:44:29;74.78;;;30.75;;
32746;SDS011;19118;50.860;13.662;2022-12-10T19:49:30;76.75;;;31.38;;
32746;SDS011;19118;50.860;13.662;2022-12-10T19:54:31;77.82;;;32.75;;
32746;SDS011;19118;50.860;13.662;2022-12-10T19:59:31;77.60;;;33.10;;
32746;SDS011;19118;50.860;13.662;2022-12-10T20:04:32;83.20;;;34.53;;
32746;SDS011;19118;50.860;13.662;2022-12-10T20:09:32;85.43;;;35.83;;
32746;SDS011;19118;50.860;13.662;2022-12-10T20:14:32;87.20;;;34.22;;
32746;SDS011;19118;50.860;13.662;2022-12-10T20:19:33;86.63;;;34.80;;
32746;SDS011;19118;50.860;13.662;2022-12-10T20:24:34;80.80;;;35.13;;
32746;SDS011;19118;50.860;13.662;2022-12-10T20:29:34;85.47;;;34.17;;
32746;SDS011;19118;50.860;13.662;2022-12-10T20:34:35;77.47;;;31.05;;
32746;SDS011;19118;50.860;13.662;2022-12-10T20:39:35;70.10;;;28.75;;
32746;SDS011;19118;50.860;13.662;2022-12-10T20:44:36;76.30;;;32.55;;
32746;SDS011;19118;50.860;13.662;2022-12-10T20:49:36;77.10;;;31.33;;
32746;SDS011;19118;50.860;13.662;2022-12-10T20:54:37;78.85;;;34.50;;
32746;SDS011;19118;50.860;13.662;2022-12-10T20:59:37;91.63;;;34.97;;
32746;SDS011;19118;50.860;13.662;2022-12-10T21:04:37;85.55;;;34.15;;
32746;SDS011;19118;50.860;13.662;2022-12-10T21:09:38;75.95;;;33.60;;
32746;SDS011;19118;50.860;13.662;2022-12-10T21:14:38;91.72;;;37.45;;
32746;SDS011;19118;50.860;13.662;2022-12-10T21:19:39;78.88;;;32.53;;
32746;SDS011;19118;50.860;13.662;2022-12-10T21:24:41;74.57;;;32.72;;
32746;SDS011;19118;50.860;13.662;2022-12-10T21:29:41;76.47;;;32.78;;
32746;SDS011;19118;50.860;13.662;2022-12-10T21:34:42;79.78;;;33.00;;
32746;SDS011;19118;50.860;13.662;2022-12-10T21:39:42;74.72;;;32.85;;
32746;SDS011;19118;50.860;13.662;2022-12-10T21:44:42;81.00;;;32.17;;
32746;SDS011;19118;50.860;13.662;2022-12-10T21:49:43;73.85;;;30.23;;
32746;SDS011;19118;50.860;13.662;2022-12-10T21:54:43;68.30;;;29.15;;
32746;SDS011;19118;50.860;13.662;2022-12-10T21:59:44;73.95;;;30.33;;
32746;SDS011;19118;50.860;13.662;2022-12-10T22:04:44;79.05;;;31.85;;
32746;SDS011;19118;50.860;13.662;2022-12-10T22:09:44;72.93;;;29.13;;
32746;SDS011;19118;50.860;13.662;2022-12-10T22:14:45;72.03;;;28.52;;
32746;SDS011;19118;50.860;13.662;2022-12-10T22:19:45;65.85;;;27.55;;
32746;SDS011;19118;50.860;13.662;2022-12-10T22:24:46;76.35;;;29.73;;
32746;SDS011;19118;50.860;13.662;2022-12-10T22:29:46;80.10;;;32.72;;
32746;SDS011;19118;50.860;13.662;2022-12-10T22:34:46;80.25;;;32.60;;
32746;SDS011;19118;50.860;13.662;2022-12-10T22:39:47;79.78;;;32.15;;
32746;SDS011;19118;50.860;13.662;2022-12-10T22:44:47;64.57;;;27.00;;
32746;SDS011;19118;50.860;13.662;2022-12-10T22:49:48;60.80;;;25.20;;
32746;SDS011;19118;50.860;13.662;2022-12-10T22:54:48;54.58;;;24.77;;
32746;SDS011;19118;50.860;13.662;2022-12-10T22:59:48;61.42;;;23.92;;
32746;SDS011;19118;50.860;13.662;2022-12-10T23:04:49;67.22;;;26.08;;
32746;SDS011;19118;50.860;13.662;2022-12-10T23:09:50;58.28;;;26.10;;
32746;SDS011;19118;50.860;13.662;2022-12-10T23:14:51;64.53;;;26.58;;
32746;SDS011;19118;50.860;13.662;2022-12-10T23:19:51;68.78;;;26.65;;
32746;SDS011;19118;50.860;13.662;2022-12-10T23:24:52;87.05;;;33.30;;
32746;SDS011;19118;50.860;13.662;2022-12-10T23:29:52;80.28;;;30.95;;
32746;SDS011;19118;50.860;13.662;2022-12-10T23:34:52;72.93;;;28.92;;
32746;SDS011;19118;50.860;13.662;2022-12-10T23:39:53;71.03;;;28.30;;
32746;SDS011;19118;50.860;13.662;2022-12-10T23:44:54;70.80;;;30.50;;
32746;SDS011;19118;50.860;13.662;2022-12-10T23:49:54;75.75;;;29.63;;
32746;SDS011;19118;50.860;13.662;2022-12-10T23:54:55;86.20;;;31.92;;
32746;SDS011;19118;50.860;13.662;2022-12-10T23:59:55;78.00;;;31.58;;
